createdAt,value
2023-03-17T00:00:12.346Z,102314.31
2023-03-17T00:03:00.038Z,102319.31
2023-03-17T00:05:52.136Z,102261.84
2023-03-17T00:08:51.507Z,102326.63
2023-03-17T00:11:38.367Z,102323.84
2023-03-17T00:14:25.526Z,102326.25
2023-03-17T00:17:12.906Z,102330.34
2023-03-17T00:20:00.793Z,102318.72
2023-03-17T00:22:47.678Z,102319.50
2023-03-17T00:25:39.796Z,102322.06
2023-03-17T00:28:26.639Z,102313.94
2023-03-17T00:31:17.342Z,102324.34
2023-03-17T00:34:06.038Z,102316.25
2023-03-17T00:36:54.054Z,102316.03
2023-03-17T00:39:42.788Z,102315.09
2023-03-17T00:42:29.995Z,102321.75
2023-03-17T00:45:16.934Z,102312.81
2023-03-17T00:48:05.240Z,102256.06
2023-03-17T00:50:52.147Z,102322.97
2023-03-17T00:53:40.582Z,102329.63
2023-03-17T00:56:36.517Z,102316.59
2023-03-17T00:59:25.655Z,102303.00
2023-03-17T01:02:13.286Z,102259.47
2023-03-17T01:05:06.207Z,102331.53
2023-03-17T01:07:54.988Z,102332.13
2023-03-17T01:10:45.389Z,102326.81
2023-03-17T01:13:33.522Z,102337.00
2023-03-17T01:16:20.999Z,102329.03
2023-03-17T01:19:08.019Z,102327.16
2023-03-17T01:21:55.079Z,102315.28
2023-03-17T01:24:42.076Z,102343.28
2023-03-17T01:27:29.140Z,102341.47
2023-03-17T01:30:16.121Z,102291.88
2023-03-17T01:33:03.213Z,102343.75
2023-03-17T01:35:55.030Z,102235.69
2023-03-17T01:38:42.194Z,102324.00
2023-03-17T01:41:29.178Z,102298.88
2023-03-17T01:44:16.283Z,102343.81
2023-03-17T01:47:04.903Z,102347.97
2023-03-17T01:49:57.148Z,102319.50
2023-03-17T01:52:44.375Z,102338.97
2023-03-17T01:55:36.068Z,102339.72
2023-03-17T01:58:23.155Z,102334.16
2023-03-17T02:01:10.966Z,102315.16
2023-03-17T02:04:01.768Z,102339.09
2023-03-17T02:06:57.426Z,102273.28
2023-03-17T02:09:47.634Z,102343.03
2023-03-17T02:12:34.953Z,102345.59
2023-03-17T02:15:22.741Z,102338.59
2023-03-17T02:18:32.575Z,102334.09
2023-03-17T02:22:12.446Z,102339.94
2023-03-17T02:25:03.247Z,102335.41
2023-03-17T02:27:55.514Z,102337.84
2023-03-17T02:30:44.198Z,102333.19
2023-03-17T02:33:31.797Z,102347.69
2023-03-17T02:36:18.957Z,102274.22
2023-03-17T02:39:06.890Z,102345.59
2023-03-17T02:41:55.016Z,102356.59
2023-03-17T02:44:41.955Z,102355.50
2023-03-17T02:47:28.974Z,102265.84
2023-03-17T02:50:16.208Z,102363.09
2023-03-17T02:53:03.497Z,102369.75
2023-03-17T02:55:50.424Z,102361.78
2023-03-17T02:58:37.692Z,102366.78
2023-03-17T03:01:24.712Z,102375.22
2023-03-17T03:04:12.005Z,102378.47
2023-03-17T03:06:59.038Z,102374.91
2023-03-17T03:09:46.147Z,102376.47
2023-03-17T03:12:33.117Z,102365.69
2023-03-17T03:15:20.047Z,102369.13
2023-03-17T03:18:07.157Z,102373.34
2023-03-17T03:20:54.428Z,102376.69
2023-03-17T03:23:41.364Z,102378.28
2023-03-17T03:26:28.347Z,102372.13
2023-03-17T03:29:15.423Z,102369.38
2023-03-17T03:32:02.369Z,102340.78
2023-03-17T03:34:49.459Z,102365.19
2023-03-17T03:37:36.543Z,102361.63
2023-03-17T03:40:23.983Z,102365.66
2023-03-17T03:43:22.504Z,102334.91
2023-03-17T03:46:10.898Z,102380.78
2023-03-17T03:48:57.909Z,102370.09
2023-03-17T03:51:44.878Z,102373.56
2023-03-17T03:54:31.883Z,102374.41
2023-03-17T03:57:18.949Z,102376.06
2023-03-17T04:00:05.823Z,102364.84
2023-03-17T04:02:59.030Z,102363.09
2023-03-17T04:05:46.209Z,102365.59
2023-03-17T04:08:33.261Z,102358.66
2023-03-17T04:11:20.374Z,102363.72
2023-03-17T04:14:07.619Z,102367.97
2023-03-17T04:16:54.561Z,102368.78
2023-03-17T04:19:42.194Z,102356.72
2023-03-17T04:22:31.458Z,102357.59
2023-03-17T04:25:18.492Z,102348.94
2023-03-17T04:28:05.324Z,102347.22
2023-03-17T04:30:52.341Z,102346.28
2023-03-17T04:33:39.267Z,102318.09
2023-03-17T04:36:27.268Z,102334.75
2023-03-17T04:39:14.840Z,102347.13
2023-03-17T04:42:02.137Z,102347.94
2023-03-17T04:44:49.120Z,102299.44
2023-03-17T04:47:36.066Z,102342.63
2023-03-17T04:50:23.806Z,102341.81
2023-03-17T04:53:10.823Z,102348.84
2023-03-17T04:55:57.753Z,102282.44
2023-03-17T04:58:30.841Z,102337.31
2023-03-17T05:00:59.104Z,102340.97
2023-03-17T05:03:28.326Z,102265.66
2023-03-17T05:06:00.540Z,102349.00
2023-03-17T05:08:31.069Z,102348.19
2023-03-17T05:10:58.743Z,102348.19
2023-03-17T05:13:27.209Z,102336.69
2023-03-17T05:15:55.747Z,102360.38
2023-03-17T05:18:25.514Z,102363.88
2023-03-17T05:20:52.799Z,102356.81
2023-03-17T05:23:20.760Z,102327.44
2023-03-17T05:25:48.504Z,102375.22
2023-03-17T05:28:15.687Z,102378.72
2023-03-17T05:30:43.686Z,102382.22
2023-03-17T05:33:10.677Z,102373.72
2023-03-17T05:35:37.958Z,102355.91
2023-03-17T05:38:04.987Z,102378.22
2023-03-17T05:40:32.736Z,102376.63
2023-03-17T05:42:59.778Z,102371.56
2023-03-17T05:45:26.898Z,102356.47
2023-03-17T05:47:53.798Z,102364.53
2023-03-17T05:50:20.631Z,102378.78
2023-03-17T05:52:48.807Z,102377.25
2023-03-17T05:55:16.164Z,102367.13
2023-03-17T05:57:43.205Z,102366.31
2023-03-17T06:00:12.776Z,102380.25
2023-03-17T06:02:40.303Z,102384.66
2023-03-17T06:05:08.941Z,102382.16
2023-03-17T06:07:50.893Z,102390.03
2023-03-17T06:10:18.846Z,102388.53
2023-03-17T06:12:46.340Z,102403.25
2023-03-17T06:15:13.710Z,102405.97
2023-03-17T06:17:40.552Z,102401.81
2023-03-17T06:20:08.214Z,102397.47
2023-03-17T06:22:35.331Z,102409.84
2023-03-17T06:25:02.213Z,102410.00
2023-03-17T06:27:29.232Z,102414.53
2023-03-17T06:29:57.480Z,102410.41
2023-03-17T06:32:24.337Z,102403.72
2023-03-17T06:34:51.951Z,102403.97
2023-03-17T06:37:19.355Z,102405.88
2023-03-17T06:39:46.324Z,102409.47
2023-03-17T06:42:13.324Z,102408.03
2023-03-17T06:44:41.635Z,102399.63
2023-03-17T06:47:08.737Z,102392.13
2023-03-17T06:49:35.702Z,102389.78
2023-03-17T06:52:02.619Z,102390.81
2023-03-17T06:54:29.499Z,102394.53
2023-03-17T06:56:56.629Z,102373.75
2023-03-17T06:59:23.884Z,102399.25
2023-03-17T07:01:52.067Z,102396.06
2023-03-17T07:04:21.047Z,102392.84
2023-03-17T07:06:48.212Z,102393.06
2023-03-17T07:09:15.652Z,102390.72
2023-03-17T07:11:43.140Z,102384.94
2023-03-17T07:14:10.187Z,102389.56
2023-03-17T07:16:37.720Z,102391.53
2023-03-17T07:19:05.039Z,102391.75
2023-03-17T07:21:31.925Z,102389.44
2023-03-17T07:23:58.956Z,102386.31
2023-03-17T07:26:26.529Z,102387.38
2023-03-17T07:28:53.489Z,102377.34
2023-03-17T07:31:20.761Z,102385.38
2023-03-17T07:33:47.935Z,102372.78
2023-03-17T07:36:15.868Z,102371.28
2023-03-17T07:38:43.807Z,102360.22
2023-03-17T07:41:11.077Z,102373.63
2023-03-17T07:43:38.546Z,102334.47
2023-03-17T07:46:06.560Z,102371.59
2023-03-17T07:48:36.623Z,102366.75
2023-03-17T07:51:03.687Z,102343.31
2023-03-17T07:53:30.799Z,102316.16
2023-03-17T07:55:57.672Z,102366.75
2023-03-17T07:58:24.698Z,102357.56
2023-03-17T08:00:51.801Z,102366.63
2023-03-17T08:03:19.620Z,102363.28
2023-03-17T08:05:53.359Z,102369.75
2023-03-17T08:08:22.283Z,102362.31
2023-03-17T08:10:50.639Z,102348.09
2023-03-17T08:13:18.814Z,102357.59
2023-03-17T08:15:46.505Z,102372.81
2023-03-17T08:18:13.496Z,102358.47
2023-03-17T08:20:40.790Z,102359.69
2023-03-17T08:23:07.690Z,102355.72
2023-03-17T08:25:34.623Z,102359.44
2023-03-17T08:28:01.881Z,102367.56
2023-03-17T08:30:32.390Z,102345.13
2023-03-17T08:33:00.302Z,102361.38
2023-03-17T08:35:27.302Z,102355.59
2023-03-17T08:37:56.303Z,102362.91
2023-03-17T08:40:23.519Z,102340.22
2023-03-17T08:42:50.709Z,102367.72
2023-03-17T08:45:19.458Z,102366.38
2023-03-17T08:47:47.675Z,102369.25
2023-03-17T08:50:22.080Z,102367.84
2023-03-17T08:52:49.587Z,102363.75
2023-03-17T08:55:16.678Z,102361.50
2023-03-17T08:57:44.867Z,102357.41
2023-03-17T09:00:14.098Z,102305.81
2023-03-17T09:02:43.522Z,102349.38
2023-03-17T09:05:17.016Z,102337.38
2023-03-17T09:07:44.646Z,102341.28
2023-03-17T09:10:13.805Z,102339.91
2023-03-17T09:12:40.948Z,102328.94
2023-03-17T09:15:08.858Z,102336.19
2023-03-17T09:17:36.177Z,102335.59
2023-03-17T09:20:03.651Z,102332.44
2023-03-17T09:22:31.100Z,102347.44
2023-03-17T09:24:58.711Z,102346.88
2023-03-17T09:27:25.865Z,102313.06
2023-03-17T09:29:52.837Z,102324.94
2023-03-17T09:32:19.724Z,102319.97
2023-03-17T09:34:49.157Z,102324.63
2023-03-17T09:37:18.034Z,102255.31
2023-03-17T09:39:44.948Z,102307.78
2023-03-17T09:42:23.750Z,102284.63
2023-03-17T09:45:18.008Z,102284.94
2023-03-17T09:48:06.114Z,102296.47
2023-03-17T09:50:45.466Z,102280.28
2023-03-17T09:53:35.926Z,102277.97
2023-03-17T09:56:08.693Z,102209.63
2023-03-17T09:58:38.003Z,102234.53
2023-03-17T10:01:05.681Z,102271.75
2023-03-17T10:03:34.192Z,102218.28
2023-03-17T10:06:23.166Z,102274.00
2023-03-17T10:09:27.219Z,102259.38
2023-03-17T10:12:26.794Z,102271.94
2023-03-17T10:15:06.819Z,102265.25
2023-03-17T10:17:40.701Z,102274.09
2023-03-17T10:20:40.288Z,102262.03
2023-03-17T10:23:15.273Z,102252.44
2023-03-17T10:25:42.786Z,102274.66
2023-03-17T10:28:27.758Z,102267.88
2023-03-17T10:30:54.927Z,102267.16
2023-03-17T10:33:22.414Z,102271.72
2023-03-17T10:35:49.508Z,102268.41
2023-03-17T10:38:22.124Z,102256.38
2023-03-17T10:41:00.738Z,102260.03
2023-03-17T10:43:36.331Z,102247.06
2023-03-17T10:46:06.538Z,102256.91
2023-03-17T10:48:38.734Z,102246.59
2023-03-17T10:51:09.335Z,102234.47
2023-03-17T10:53:43.854Z,102174.88
2023-03-17T10:56:31.020Z,102231.38
2023-03-17T10:59:06.486Z,102163.84
2023-03-17T11:01:44.198Z,102230.78
2023-03-17T11:04:32.331Z,102225.72
2023-03-17T11:07:05.415Z,102223.28
2023-03-17T11:09:36.927Z,102212.97
2023-03-17T11:12:19.220Z,102213.88
2023-03-17T11:14:48.386Z,102215.88
2023-03-17T11:17:36.471Z,102209.88
2023-03-17T11:20:21.147Z,102203.16
2023-03-17T11:23:22.478Z,102192.88
2023-03-17T11:25:58.732Z,102187.78
2023-03-17T11:28:33.666Z,102168.72
2023-03-17T11:31:27.957Z,102170.72
2023-03-17T11:34:14.294Z,102176.09
2023-03-17T11:37:10.210Z,102175.38
2023-03-17T11:40:03.122Z,102163.25
2023-03-17T11:42:54.357Z,102159.91
2023-03-17T11:45:51.970Z,102171.38
2023-03-17T11:48:47.545Z,102166.25
2023-03-17T11:51:43.363Z,102160.25
2023-03-17T11:54:18.259Z,102162.09
2023-03-17T11:56:48.502Z,102156.94
2023-03-17T11:59:39.654Z,102153.50
2023-03-17T12:02:19.328Z,102160.59
2023-03-17T12:05:09.993Z,102161.50
2023-03-17T12:07:44.671Z,102158.94
2023-03-17T12:10:31.222Z,102143.22
2023-03-17T12:13:12.191Z,102149.44
2023-03-17T12:15:47.562Z,102117.09
2023-03-17T12:18:31.265Z,102130.31
2023-03-17T12:21:02.157Z,102125.94
2023-03-17T12:23:38.372Z,102112.81
2023-03-17T12:26:19.142Z,102122.50
2023-03-17T12:28:58.255Z,102115.56
2023-03-17T12:31:58.682Z,102097.22
2023-03-17T12:34:42.841Z,102098.09
2023-03-17T12:37:09.966Z,102085.88
2023-03-17T12:39:37.657Z,102096.38
2023-03-17T12:42:43.615Z,102088.53
2023-03-17T12:45:48.799Z,102042.19
2023-03-17T12:48:53.254Z,102062.31
2023-03-17T12:51:52.647Z,102060.59
2023-03-17T12:54:26.512Z,102054.47
2023-03-17T12:57:00.223Z,102051.00
2023-03-17T12:59:28.239Z,102051.03
2023-03-17T13:02:15.559Z,102034.41
2023-03-17T13:04:57.959Z,102048.41
2023-03-17T13:07:46.933Z,102037.03
2023-03-17T13:10:37.607Z,102039.66
2023-03-17T13:13:10.544Z,102028.28
2023-03-17T13:15:38.714Z,102031.81
2023-03-17T13:18:14.588Z,102026.56
2023-03-17T13:20:44.712Z,102006.44
2023-03-17T13:23:11.687Z,102014.34
2023-03-17T13:25:48.171Z,102010.81
2023-03-17T13:28:15.464Z,102023.09
2023-03-17T13:30:57.151Z,102020.47
2023-03-17T13:33:31.454Z,102029.22
2023-03-17T13:36:17.366Z,102018.72
2023-03-17T13:39:18.713Z,102005.59
2023-03-17T13:42:12.068Z,102000.34
2023-03-17T13:45:08.100Z,101981.97
2023-03-17T13:47:38.496Z,101967.09
2023-03-17T13:50:14.963Z,101957.47
2023-03-17T13:53:02.948Z,101953.97
2023-03-17T13:55:37.936Z,101950.47
2023-03-17T13:58:12.128Z,101942.59
2023-03-17T14:00:41.468Z,101930.34
2023-03-17T14:03:20.743Z,101900.59
2023-03-17T14:05:50.342Z,101882.22
2023-03-17T14:08:27.654Z,101927.72
2023-03-17T14:11:00.755Z,101930.34
2023-03-17T14:14:26.098Z,101877.00
2023-03-17T14:17:12.222Z,101900.59
2023-03-17T14:19:41.807Z,101902.34
2023-03-17T14:22:25.548Z,101882.22
2023-03-17T14:24:54.492Z,101879.59
2023-03-17T14:27:24.090Z,101858.59
2023-03-17T14:29:52.394Z,101851.59
2023-03-17T14:32:23.823Z,101857.72
2023-03-17T14:34:56.823Z,101845.47
2023-03-17T14:37:24.427Z,101847.22
2023-03-17T14:39:54.648Z,101782.56
2023-03-17T14:42:28.450Z,101828.84
2023-03-17T14:45:05.578Z,101832.34
2023-03-17T14:47:40.044Z,101838.47
2023-03-17T14:50:17.524Z,101837.56
2023-03-17T14:52:44.779Z,101823.59
2023-03-17T14:55:14.636Z,101821.81
2023-03-17T14:57:41.870Z,101829.69
2023-03-17T15:00:34.237Z,101816.56
2023-03-17T15:03:05.157Z,101786.88
2023-03-17T15:05:40.842Z,101791.22
2023-03-17T15:08:38.275Z,101796.47
2023-03-17T15:11:06.856Z,101785.97
2023-03-17T15:13:37.037Z,101771.94
2023-03-17T15:16:17.001Z,101769.31
2023-03-17T15:18:44.926Z,101771.94
2023-03-17T15:21:32.496Z,101768.47
2023-03-17T15:24:19.736Z,101764.97
2023-03-17T15:26:46.902Z,101755.34
2023-03-17T15:29:13.810Z,101764.06
2023-03-17T15:31:40.799Z,101765.84
2023-03-17T15:34:13.484Z,101746.56
2023-03-17T15:36:40.740Z,101765.84
2023-03-17T15:39:09.812Z,101745.69
2023-03-17T15:41:36.853Z,101739.59
2023-03-17T15:44:05.214Z,101733.47
2023-03-17T15:46:33.631Z,101734.34
2023-03-17T15:49:01.047Z,101740.44
2023-03-17T15:51:28.075Z,101722.97
2023-03-17T15:53:55.098Z,101742.22
2023-03-17T15:56:22.374Z,101736.97
2023-03-17T15:58:52.327Z,101732.56
2023-03-17T16:01:20.068Z,101724.69
2023-03-17T16:03:48.276Z,101718.59
2023-03-17T16:06:21.293Z,101655.72
2023-03-17T16:08:49.527Z,101694.13
2023-03-17T16:11:20.140Z,101718.59
2023-03-17T16:13:47.634Z,101705.47
2023-03-17T16:16:23.455Z,101643.47
2023-03-17T16:18:51.659Z,101705.47
2023-03-17T16:21:19.337Z,101697.59
2023-03-17T16:23:48.479Z,101699.31
2023-03-17T16:26:17.125Z,101686.22
2023-03-17T16:28:46.265Z,101686.22
2023-03-17T16:31:30.237Z,101692.34
2023-03-17T16:33:57.397Z,101685.31
2023-03-17T16:36:25.581Z,101680.97
2023-03-17T16:38:53.344Z,101673.13
2023-03-17T16:41:23.452Z,101678.34
2023-03-17T16:43:53.719Z,101680.97
2023-03-17T16:46:22.628Z,101685.34
2023-03-17T16:48:50.720Z,101635.53
2023-03-17T16:51:18.127Z,101618.09
2023-03-17T16:53:45.766Z,101663.50
2023-03-17T16:56:18.871Z,101657.34
2023-03-17T16:58:47.025Z,101641.59
2023-03-17T17:01:23.576Z,101633.75
2023-03-17T17:03:51.224Z,101642.50
2023-03-17T17:06:19.993Z,101632.84
2023-03-17T17:08:48.353Z,101624.13
2023-03-17T17:11:17.232Z,101632.00
2023-03-17T17:13:46.758Z,101621.53
2023-03-17T17:16:28.319Z,101623.25
2023-03-17T17:18:56.061Z,101615.38
2023-03-17T17:21:23.251Z,101602.25
2023-03-17T17:23:52.772Z,101619.75
2023-03-17T17:26:20.177Z,101612.75
2023-03-17T17:28:47.115Z,101597.00
2023-03-17T17:31:13.994Z,101595.31
2023-03-17T17:33:41.047Z,101602.25
2023-03-17T17:36:34.571Z,101581.34
2023-03-17T17:39:21.492Z,101611.03
2023-03-17T17:42:08.502Z,101604.00
2023-03-17T17:44:55.302Z,101607.50
2023-03-17T17:47:42.319Z,101609.25
2023-03-17T17:50:32.647Z,101573.50
2023-03-17T17:53:19.993Z,101604.00
2023-03-17T17:56:08.636Z,101608.38
2023-03-17T17:58:55.550Z,101599.63
2023-03-17T18:01:42.448Z,101583.88
2023-03-17T18:04:32.510Z,101603.13
2023-03-17T18:07:19.402Z,101588.22
2023-03-17T18:10:06.481Z,101568.97
2023-03-17T18:12:53.619Z,101571.59
2023-03-17T18:15:41.076Z,101575.94
2023-03-17T18:18:28.496Z,101578.56
2023-03-17T18:21:15.530Z,101572.41
2023-03-17T18:24:02.428Z,101582.03
2023-03-17T18:26:49.301Z,101562.75
2023-03-17T18:29:36.326Z,101561.88
2023-03-17T18:32:24.934Z,101553.16
2023-03-17T18:35:12.048Z,101549.59
2023-03-17T18:37:59.103Z,101548.75
2023-03-17T18:40:46.237Z,101553.97
2023-03-17T18:43:33.280Z,101544.31
2023-03-17T18:46:20.746Z,101537.31
2023-03-17T18:49:07.803Z,101528.69
2023-03-17T18:51:55.048Z,101542.59
2023-03-17T18:54:42.941Z,101537.34
2023-03-17T18:57:29.922Z,101506.84
2023-03-17T19:00:17.184Z,101525.09
2023-03-17T19:03:04.582Z,101542.63
2023-03-17T19:05:51.651Z,101533.88
2023-03-17T19:08:38.453Z,101533.84
2023-03-17T19:11:27.503Z,101536.47
2023-03-17T19:14:14.419Z,101495.47
2023-03-17T19:17:01.494Z,101511.16
2023-03-17T19:19:48.472Z,101493.63
2023-03-17T19:22:35.717Z,101488.38
2023-03-17T19:25:23.011Z,101488.38
2023-03-17T19:28:09.868Z,101484.03
2023-03-17T19:30:56.814Z,101473.50
2023-03-17T19:33:43.925Z,101476.19
2023-03-17T19:36:32.654Z,101460.44
2023-03-17T19:39:19.494Z,101465.66
2023-03-17T19:42:06.526Z,101456.03
2023-03-17T19:44:53.698Z,101448.19
2023-03-17T19:47:40.738Z,101430.69
2023-03-17T19:50:28.590Z,101442.97
2023-03-17T19:53:15.500Z,101449.03
2023-03-17T19:56:03.498Z,101430.66
2023-03-17T19:58:50.470Z,101416.69
2023-03-17T20:01:37.580Z,101405.31
2023-03-17T20:04:25.199Z,101396.72
2023-03-17T20:07:12.198Z,101420.16
2023-03-17T20:09:59.253Z,101409.69
2023-03-17T20:12:46.354Z,101401.84
2023-03-17T20:15:33.538Z,101400.94
2023-03-17T20:18:20.657Z,101401.81
2023-03-17T20:21:14.461Z,101393.94
2023-03-17T20:24:01.382Z,101400.97
2023-03-17T20:26:48.359Z,101383.44
2023-03-17T20:29:35.950Z,101390.47
2023-03-17T20:32:23.605Z,101373.84
2023-03-17T20:35:10.619Z,101354.59
2023-03-17T20:37:57.467Z,101341.50
2023-03-17T20:40:45.764Z,101325.03
2023-03-17T20:43:32.793Z,101351.97
2023-03-17T20:46:19.793Z,101330.97
2023-03-17T20:49:09.690Z,101324.91
2023-03-17T20:51:57.139Z,101327.50
2023-03-17T20:54:43.983Z,101324.88
2023-03-17T20:57:36.939Z,101289.25
2023-03-17T21:00:24.379Z,101325.72
2023-03-17T21:03:11.516Z,101325.69
2023-03-17T21:05:58.453Z,101331.84
2023-03-17T21:08:45.397Z,101320.47
2023-03-17T21:11:38.128Z,101320.44
2023-03-17T21:14:26.326Z,101315.19
2023-03-17T21:17:13.370Z,101329.19
2023-03-17T21:20:00.535Z,101313.44
2023-03-17T21:22:47.630Z,101302.03
2023-03-17T21:25:34.725Z,101296.00
2023-03-17T21:28:22.206Z,101310.81
2023-03-17T21:31:10.059Z,101281.19
2023-03-17T21:33:57.227Z,101302.06
2023-03-17T21:36:44.189Z,101295.94
2023-03-17T21:39:31.416Z,101275.06
2023-03-17T21:42:18.689Z,101284.59
2023-03-17T21:45:05.712Z,101278.44
2023-03-17T21:47:52.894Z,101242.84
2023-03-17T21:50:40.247Z,101272.31
2023-03-17T21:53:27.558Z,101267.91
2023-03-17T21:56:14.354Z,101268.81
2023-03-17T21:59:01.636Z,101257.41
2023-03-17T22:01:48.612Z,101225.28
2023-03-17T22:04:35.542Z,101249.53
2023-03-17T22:07:22.418Z,101242.56
2023-03-17T22:10:13.207Z,101219.06
2023-03-17T22:13:00.049Z,101227.69
2023-03-17T22:15:47.052Z,101178.19
2023-03-17T22:18:33.907Z,101226.81
2023-03-17T22:21:21.060Z,101230.31
2023-03-17T22:24:08.233Z,101217.16
2023-03-17T22:26:55.217Z,101216.28
2023-03-17T22:29:42.111Z,101211.94
2023-03-17T22:32:29.583Z,101206.69
2023-03-17T22:35:16.472Z,101128.41
2023-03-17T22:38:03.526Z,101191.78
2023-03-17T22:40:50.680Z,101185.66
2023-03-17T22:43:37.715Z,101179.53
2023-03-17T22:46:24.973Z,101160.28
2023-03-17T22:49:11.970Z,101155.03
2023-03-17T22:51:59.316Z,101151.53
2023-03-17T22:54:46.248Z,101158.53
2023-03-17T22:57:33.129Z,101169.91
2023-03-17T23:00:20.985Z,101148.06
2023-03-17T23:03:07.902Z,101125.34
2023-03-17T23:05:54.903Z,101135.84
2023-03-17T23:08:41.806Z,101126.19
2023-03-17T23:11:31.788Z,101109.59
2023-03-17T23:14:18.763Z,101116.59
2023-03-17T23:17:05.855Z,101110.50
2023-03-17T23:19:52.913Z,101085.31
2023-03-17T23:22:40.004Z,101101.81
2023-03-17T23:25:27.121Z,101112.31
2023-03-17T23:28:14.329Z,101102.66
2023-03-17T23:31:02.910Z,101057.53
2023-03-17T23:33:50.146Z,101078.25
2023-03-17T23:36:37.781Z,101030.53
2023-03-17T23:39:24.755Z,101060.09
2023-03-17T23:42:11.558Z,101010.53
2023-03-17T23:44:58.871Z,101046.00
2023-03-17T23:47:45.936Z,101048.56
2023-03-17T23:50:34.343Z,101050.31
2023-03-17T23:53:21.429Z,101038.09
2023-03-17T23:56:08.424Z,101011.22
2023-03-17T23:58:55.483Z,101034.63
